sensor_id;sensor_type;location;lat;lon;timestamp;P1;durP1;ratioP1;P2;durP2;ratioP2
3054;SDS011;1537;52.018;8.542;2023-10-08T00:00:44;15.40;;;10.77;;
3054;SDS011;1537;52.018;8.542;2023-10-08T00:04:09;16.80;;;9.30;;
3054;SDS011;1537;52.018;8.542;2023-10-08T00:07:33;14.30;;;9.23;;
3054;SDS011;1537;52.018;8.542;2023-10-08T00:10:59;20.93;;;9.13;;
3054;SDS011;1537;52.018;8.542;2023-10-08T00:14:28;15.70;;;8.30;;
3054;SDS011;1537;52.018;8.542;2023-10-08T00:17:52;16.87;;;9.67;;
3054;SDS011;1537;52.018;8.542;2023-10-08T00:21:18;15.63;;;8.53;;
3054;SDS011;1537;52.018;8.542;2023-10-08T00:24:51;15.40;;;8.80;;
3054;SDS011;1537;52.018;8.542;2023-10-08T00:28:24;17.03;;;9.43;;
3054;SDS011;1537;52.018;8.542;2023-10-08T00:31:53;22.77;;;8.87;;
3054;SDS011;1537;52.018;8.542;2023-10-08T00:35:19;12.23;;;8.40;;
3054;SDS011;1537;52.018;8.542;2023-10-08T00:38:43;17.13;;;8.00;;
3054;SDS011;1537;52.018;8.542;2023-10-08T00:42:07;13.03;;;8.03;;
3054;SDS011;1537;52.018;8.542;2023-10-08T00:45:36;19.20;;;8.63;;
3054;SDS011;1537;52.018;8.542;2023-10-08T00:49:05;18.47;;;9.20;;
3054;SDS011;1537;52.018;8.542;2023-10-08T00:52:46;13.90;;;8.37;;
3054;SDS011;1537;52.018;8.542;2023-10-08T00:56:22;15.33;;;8.57;;
3054;SDS011;1537;52.018;8.542;2023-10-08T00:59:49;15.20;;;8.37;;
3054;SDS011;1537;52.018;8.542;2023-10-08T01:03:19;15.67;;;9.00;;
3054;SDS011;1537;52.018;8.542;2023-10-08T01:06:43;17.37;;;10.00;;
3054;SDS011;1537;52.018;8.542;2023-10-08T01:10:11;16.83;;;8.17;;
3054;SDS011;1537;52.018;8.542;2023-10-08T01:13:43;15.67;;;8.20;;
3054;SDS011;1537;52.018;8.542;2023-10-08T01:17:08;10.00;;;3.23;;
3054;SDS011;1537;52.018;8.542;2023-10-08T01:20:36;3.97;;;1.60;;
3054;SDS011;1537;52.018;8.542;2023-10-08T01:24:02;3.60;;;1.50;;
3054;SDS011;1537;52.018;8.542;2023-10-08T01:27:30;5.47;;;0.80;;
3054;SDS011;1537;52.018;8.542;2023-10-08T01:30:57;2.90;;;0.70;;
3054;SDS011;1537;52.018;8.542;2023-10-08T01:34:23;2.80;;;0.60;;
3054;SDS011;1537;52.018;8.542;2023-10-08T01:37:57;3.20;;;0.70;;
3054;SDS011;1537;52.018;8.542;2023-10-08T01:41:26;2.87;;;0.70;;
3054;SDS011;1537;52.018;8.542;2023-10-08T01:44:52;2.80;;;0.60;;
3054;SDS011;1537;52.018;8.542;2023-10-08T01:48:17;3.60;;;0.77;;
3054;SDS011;1537;52.018;8.542;2023-10-08T01:51:49;2.90;;;0.60;;
3054;SDS011;1537;52.018;8.542;2023-10-08T01:55:13;3.10;;;0.60;;
3054;SDS011;1537;52.018;8.542;2023-10-08T01:58:42;2.97;;;0.67;;
3054;SDS011;1537;52.018;8.542;2023-10-08T02:02:08;2.80;;;0.70;;
3054;SDS011;1537;52.018;8.542;2023-10-08T02:05:32;2.90;;;0.60;;
3054;SDS011;1537;52.018;8.542;2023-10-08T02:09:01;2.90;;;0.60;;
3054;SDS011;1537;52.018;8.542;2023-10-08T02:12:29;2.90;;;0.70;;
3054;SDS011;1537;52.018;8.542;2023-10-08T02:15:55;2.70;;;0.50;;
3054;SDS011;1537;52.018;8.542;2023-10-08T02:19:20;3.70;;;0.90;;
3054;SDS011;1537;52.018;8.542;2023-10-08T02:22:50;2.80;;;0.70;;
3054;SDS011;1537;52.018;8.542;2023-10-08T02:26:14;2.90;;;0.77;;
3054;SDS011;1537;52.018;8.542;2023-10-08T02:29:38;2.77;;;0.70;;
3054;SDS011;1537;52.018;8.542;2023-10-08T02:33:04;2.90;;;0.90;;
3054;SDS011;1537;52.018;8.542;2023-10-08T02:36:37;3.10;;;0.90;;
3054;SDS011;1537;52.018;8.542;2023-10-08T02:40:04;3.00;;;0.97;;
3054;SDS011;1537;52.018;8.542;2023-10-08T02:43:39;3.10;;;1.17;;
3054;SDS011;1537;52.018;8.542;2023-10-08T02:47:05;3.00;;;1.00;;
3054;SDS011;1537;52.018;8.542;2023-10-08T02:50:32;3.10;;;1.00;;
3054;SDS011;1537;52.018;8.542;2023-10-08T02:53:55;3.00;;;0.90;;
3054;SDS011;1537;52.018;8.542;2023-10-08T02:57:19;3.23;;;1.00;;
3054;SDS011;1537;52.018;8.542;2023-10-08T03:00:46;3.07;;;0.97;;
3054;SDS011;1537;52.018;8.542;2023-10-08T03:04:12;3.10;;;1.00;;
3054;SDS011;1537;52.018;8.542;2023-10-08T03:07:43;3.50;;;1.00;;
3054;SDS011;1537;52.018;8.542;2023-10-08T03:11:08;4.23;;;1.77;;
3054;SDS011;1537;52.018;8.542;2023-10-08T03:14:38;3.00;;;1.13;;
3054;SDS011;1537;52.018;8.542;2023-10-08T03:18:11;3.00;;;0.90;;
3054;SDS011;1537;52.018;8.542;2023-10-08T03:21:37;3.40;;;1.20;;
3054;SDS011;1537;52.018;8.542;2023-10-08T03:25:12;3.10;;;0.97;;
3054;SDS011;1537;52.018;8.542;2023-10-08T03:28:41;4.30;;;1.03;;
3054;SDS011;1537;52.018;8.542;2023-10-08T03:32:06;4.00;;;0.93;;
3054;SDS011;1537;52.018;8.542;2023-10-08T03:35:38;3.30;;;1.00;;
3054;SDS011;1537;52.018;8.542;2023-10-08T03:39:04;4.10;;;0.90;;
3054;SDS011;1537;52.018;8.542;2023-10-08T03:42:37;5.30;;;1.30;;
3054;SDS011;1537;52.018;8.542;2023-10-08T03:46:03;6.07;;;1.60;;
3054;SDS011;1537;52.018;8.542;2023-10-08T03:49:27;5.73;;;1.80;;
3054;SDS011;1537;52.018;8.542;2023-10-08T03:52:53;7.47;;;2.43;;
3054;SDS011;1537;52.018;8.542;2023-10-08T03:56:17;9.30;;;1.87;;
3054;SDS011;1537;52.018;8.542;2023-10-08T03:59:44;11.77;;;3.20;;
3054;SDS011;1537;52.018;8.542;2023-10-08T04:03:10;6.23;;;1.80;;
3054;SDS011;1537;52.018;8.542;2023-10-08T04:06:34;9.90;;;2.00;;
3054;SDS011;1537;52.018;8.542;2023-10-08T04:10:01;12.53;;;2.17;;
3054;SDS011;1537;52.018;8.542;2023-10-08T04:13:54;9.50;;;2.07;;
3054;SDS011;1537;52.018;8.542;2023-10-08T04:17:25;8.93;;;2.30;;
3054;SDS011;1537;52.018;8.542;2023-10-08T04:20:49;7.77;;;2.50;;
3054;SDS011;1537;52.018;8.542;2023-10-08T04:24:26;6.17;;;1.70;;
3054;SDS011;1537;52.018;8.542;2023-10-08T04:27:57;8.87;;;2.20;;
3054;SDS011;1537;52.018;8.542;2023-10-08T04:31:22;7.37;;;1.90;;
3054;SDS011;1537;52.018;8.542;2023-10-08T04:34:51;14.60;;;2.33;;
3054;SDS011;1537;52.018;8.542;2023-10-08T04:38:19;7.20;;;2.10;;
3054;SDS011;1537;52.018;8.542;2023-10-08T04:41:44;5.60;;;1.57;;
3054;SDS011;1537;52.018;8.542;2023-10-08T04:45:09;6.07;;;1.90;;
3054;SDS011;1537;52.018;8.542;2023-10-08T04:48:35;4.90;;;1.87;;
3054;SDS011;1537;52.018;8.542;2023-10-08T04:52:01;6.33;;;1.47;;
3054;SDS011;1537;52.018;8.542;2023-10-08T04:55:31;5.20;;;2.00;;
3054;SDS011;1537;52.018;8.542;2023-10-08T04:58:55;9.00;;;2.00;;
3054;SDS011;1537;52.018;8.542;2023-10-08T05:02:20;7.43;;;1.70;;
3054;SDS011;1537;52.018;8.542;2023-10-08T05:05:56;7.53;;;1.83;;
3054;SDS011;1537;52.018;8.542;2023-10-08T05:09:31;16.00;;;2.43;;
3054;SDS011;1537;52.018;8.542;2023-10-08T05:13:09;13.33;;;2.23;;
3054;SDS011;1537;52.018;8.542;2023-10-08T05:16:54;8.67;;;3.03;;
3054;SDS011;1537;52.018;8.542;2023-10-08T05:20:26;11.10;;;2.00;;
3054;SDS011;1537;52.018;8.542;2023-10-08T05:24:07;8.53;;;3.13;;
3054;SDS011;1537;52.018;8.542;2023-10-08T05:27:36;10.03;;;2.33;;
3054;SDS011;1537;52.018;8.542;2023-10-08T05:31:06;7.33;;;2.40;;
3054;SDS011;1537;52.018;8.542;2023-10-08T05:34:55;9.13;;;2.10;;
3054;SDS011;1537;52.018;8.542;2023-10-08T05:38:39;5.50;;;1.90;;
3054;SDS011;1537;52.018;8.542;2023-10-08T05:42:13;7.60;;;1.77;;
3054;SDS011;1537;52.018;8.542;2023-10-08T05:45:40;6.00;;;1.70;;
3054;SDS011;1537;52.018;8.542;2023-10-08T05:49:14;12.60;;;3.33;;
3054;SDS011;1537;52.018;8.542;2023-10-08T05:52:48;7.40;;;2.10;;
3054;SDS011;1537;52.018;8.542;2023-10-08T05:56:25;7.50;;;2.37;;
3054;SDS011;1537;52.018;8.542;2023-10-08T06:00:05;5.97;;;1.60;;
3054;SDS011;1537;52.018;8.542;2023-10-08T06:03:53;11.77;;;3.20;;
3054;SDS011;1537;52.018;8.542;2023-10-08T06:07:35;5.37;;;1.70;;
3054;SDS011;1537;52.018;8.542;2023-10-08T06:11:10;10.93;;;2.53;;
3054;SDS011;1537;52.018;8.542;2023-10-08T06:14:49;7.80;;;1.57;;
3054;SDS011;1537;52.018;8.542;2023-10-08T06:18:30;6.57;;;1.83;;
3054;SDS011;1537;52.018;8.542;2023-10-08T06:21:56;13.87;;;2.90;;
3054;SDS011;1537;52.018;8.542;2023-10-08T06:25:22;11.03;;;2.33;;
3054;SDS011;1537;52.018;8.542;2023-10-08T06:28:47;13.33;;;1.97;;
3054;SDS011;1537;52.018;8.542;2023-10-08T06:32:11;5.43;;;2.27;;
3054;SDS011;1537;52.018;8.542;2023-10-08T06:35:36;6.90;;;1.90;;
3054;SDS011;1537;52.018;8.542;2023-10-08T06:39:01;10.97;;;2.20;;
3054;SDS011;1537;52.018;8.542;2023-10-08T06:42:26;6.10;;;1.80;;
3054;SDS011;1537;52.018;8.542;2023-10-08T06:45:52;7.93;;;1.90;;
3054;SDS011;1537;52.018;8.542;2023-10-08T06:49:20;12.33;;;2.10;;
3054;SDS011;1537;52.018;8.542;2023-10-08T06:52:46;7.20;;;1.87;;
3054;SDS011;1537;52.018;8.542;2023-10-08T06:56:12;6.63;;;2.03;;
3054;SDS011;1537;52.018;8.542;2023-10-08T06:59:37;5.80;;;2.00;;
3054;SDS011;1537;52.018;8.542;2023-10-08T07:03:04;7.57;;;2.57;;
3054;SDS011;1537;52.018;8.542;2023-10-08T07:06:31;9.80;;;2.83;;
3054;SDS011;1537;52.018;8.542;2023-10-08T07:09:56;4.77;;;1.73;;
3054;SDS011;1537;52.018;8.542;2023-10-08T07:13:23;8.10;;;2.60;;
3054;SDS011;1537;52.018;8.542;2023-10-08T07:16:47;9.20;;;2.50;;
3054;SDS011;1537;52.018;8.542;2023-10-08T07:20:15;6.23;;;1.93;;
3054;SDS011;1537;52.018;8.542;2023-10-08T07:23:44;5.90;;;1.90;;
3054;SDS011;1537;52.018;8.542;2023-10-08T07:27:23;6.77;;;2.20;;
3054;SDS011;1537;52.018;8.542;2023-10-08T07:30:54;5.83;;;1.63;;
3054;SDS011;1537;52.018;8.542;2023-10-08T07:34:21;11.00;;;2.80;;
3054;SDS011;1537;52.018;8.542;2023-10-08T07:37:49;6.40;;;2.27;;
3054;SDS011;1537;52.018;8.542;2023-10-08T07:41:15;7.53;;;2.00;;
3054;SDS011;1537;52.018;8.542;2023-10-08T07:44:41;5.60;;;1.90;;
3054;SDS011;1537;52.018;8.542;2023-10-08T07:48:07;6.03;;;2.00;;
3054;SDS011;1537;52.018;8.542;2023-10-08T07:51:33;4.93;;;2.07;;
3054;SDS011;1537;52.018;8.542;2023-10-08T07:54:56;5.70;;;2.63;;
3054;SDS011;1537;52.018;8.542;2023-10-08T07:58:21;6.83;;;2.50;;
3054;SDS011;1537;52.018;8.542;2023-10-08T08:01:45;9.03;;;2.30;;
3054;SDS011;1537;52.018;8.542;2023-10-08T08:05:11;4.97;;;2.20;;
3054;SDS011;1537;52.018;8.542;2023-10-08T08:08:39;6.43;;;2.10;;
3054;SDS011;1537;52.018;8.542;2023-10-08T08:12:03;6.10;;;2.20;;
3054;SDS011;1537;52.018;8.542;2023-10-08T08:15:29;9.80;;;2.80;;
3054;SDS011;1537;52.018;8.542;2023-10-08T08:18:53;6.23;;;2.37;;
3054;SDS011;1537;52.018;8.542;2023-10-08T08:22:21;7.83;;;2.10;;
3054;SDS011;1537;52.018;8.542;2023-10-08T08:25:46;6.00;;;2.13;;
3054;SDS011;1537;52.018;8.542;2023-10-08T08:29:27;6.00;;;2.37;;
3054;SDS011;1537;52.018;8.542;2023-10-08T08:32:51;9.33;;;2.40;;
3054;SDS011;1537;52.018;8.542;2023-10-08T08:36:18;5.67;;;2.23;;
3054;SDS011;1537;52.018;8.542;2023-10-08T08:39:43;6.67;;;3.13;;
3054;SDS011;1537;52.018;8.542;2023-10-08T08:43:08;5.30;;;2.23;;
3054;SDS011;1537;52.018;8.542;2023-10-08T08:46:34;5.90;;;2.30;;
3054;SDS011;1537;52.018;8.542;2023-10-08T08:49:59;7.50;;;2.03;;
3054;SDS011;1537;52.018;8.542;2023-10-08T08:53:30;4.93;;;2.20;;
3054;SDS011;1537;52.018;8.542;2023-10-08T08:56:55;6.87;;;2.00;;
3054;SDS011;1537;52.018;8.542;2023-10-08T09:00:21;7.83;;;2.53;;
3054;SDS011;1537;52.018;8.542;2023-10-08T09:03:50;5.53;;;2.40;;
3054;SDS011;1537;52.018;8.542;2023-10-08T09:07:14;8.63;;;2.40;;
3054;SDS011;1537;52.018;8.542;2023-10-08T09:10:37;5.70;;;2.50;;
3054;SDS011;1537;52.018;8.542;2023-10-08T09:14:14;6.60;;;2.40;;
3054;SDS011;1537;52.018;8.542;2023-10-08T09:17:39;6.27;;;2.33;;
3054;SDS011;1537;52.018;8.542;2023-10-08T09:21:13;5.93;;;2.63;;
3054;SDS011;1537;52.018;8.542;2023-10-08T09:24:38;6.23;;;2.30;;
3054;SDS011;1537;52.018;8.542;2023-10-08T09:28:04;5.10;;;2.33;;
3054;SDS011;1537;52.018;8.542;2023-10-08T09:31:31;9.83;;;2.80;;
3054;SDS011;1537;52.018;8.542;2023-10-08T09:34:58;12.90;;;2.13;;
3054;SDS011;1537;52.018;8.542;2023-10-08T09:38:26;6.80;;;1.80;;
3054;SDS011;1537;52.018;8.542;2023-10-08T09:41:53;6.10;;;2.07;;
3054;SDS011;1537;52.018;8.542;2023-10-08T09:45:17;6.87;;;2.03;;
3054;SDS011;1537;52.018;8.542;2023-10-08T09:48:44;7.53;;;2.50;;
3054;SDS011;1537;52.018;8.542;2023-10-08T09:52:13;11.27;;;2.90;;
3054;SDS011;1537;52.018;8.542;2023-10-08T09:55:43;5.80;;;2.67;;
3054;SDS011;1537;52.018;8.542;2023-10-08T09:59:10;8.90;;;2.60;;
3054;SDS011;1537;52.018;8.542;2023-10-08T10:02:36;9.60;;;2.40;;
3054;SDS011;1537;52.018;8.542;2023-10-08T10:06:02;5.63;;;2.50;;
3054;SDS011;1537;52.018;8.542;2023-10-08T10:09:31;7.40;;;2.53;;
3054;SDS011;1537;52.018;8.542;2023-10-08T10:12:58;8.27;;;2.30;;
3054;SDS011;1537;52.018;8.542;2023-10-08T10:16:22;5.70;;;2.10;;
3054;SDS011;1537;52.018;8.542;2023-10-08T10:19:49;11.27;;;2.70;;
3054;SDS011;1537;52.018;8.542;2023-10-08T10:23:36;10.40;;;3.00;;
3054;SDS011;1537;52.018;8.542;2023-10-08T10:27:12;6.30;;;2.60;;
3054;SDS011;1537;52.018;8.542;2023-10-08T10:30:39;8.07;;;3.10;;
3054;SDS011;1537;52.018;8.542;2023-10-08T10:34:04;9.73;;;2.50;;
3054;SDS011;1537;52.018;8.542;2023-10-08T10:37:30;8.87;;;3.10;;
3054;SDS011;1537;52.018;8.542;2023-10-08T10:41:04;8.33;;;3.17;;
3054;SDS011;1537;52.018;8.542;2023-10-08T10:44:31;6.53;;;2.57;;
3054;SDS011;1537;52.018;8.542;2023-10-08T10:47:58;7.47;;;2.90;;
3054;SDS011;1537;52.018;8.542;2023-10-08T10:51:33;9.17;;;2.60;;
3054;SDS011;1537;52.018;8.542;2023-10-08T10:54:59;7.23;;;2.50;;
3054;SDS011;1537;52.018;8.542;2023-10-08T10:58:42;6.20;;;2.90;;
3054;SDS011;1537;52.018;8.542;2023-10-08T11:02:06;8.67;;;2.87;;
3054;SDS011;1537;52.018;8.542;2023-10-08T11:05:31;9.30;;;3.00;;
3054;SDS011;1537;52.018;8.542;2023-10-08T11:08:59;10.53;;;3.73;;
3054;SDS011;1537;52.018;8.542;2023-10-08T11:12:23;7.63;;;3.13;;
3054;SDS011;1537;52.018;8.542;2023-10-08T11:16:06;6.87;;;3.17;;
3054;SDS011;1537;52.018;8.542;2023-10-08T11:19:34;6.10;;;3.00;;
3054;SDS011;1537;52.018;8.542;2023-10-08T11:22:58;6.70;;;3.13;;
3054;SDS011;1537;52.018;8.542;2023-10-08T11:26:39;7.60;;;3.27;;
3054;SDS011;1537;52.018;8.542;2023-10-08T11:30:16;4.90;;;2.70;;
3054;SDS011;1537;52.018;8.542;2023-10-08T11:33:42;9.07;;;3.17;;
3054;SDS011;1537;52.018;8.542;2023-10-08T11:37:25;7.77;;;2.73;;
3054;SDS011;1537;52.018;8.542;2023-10-08T11:40:49;7.80;;;3.40;;
3054;SDS011;1537;52.018;8.542;2023-10-08T11:44:18;6.10;;;3.27;;
3054;SDS011;1537;52.018;8.542;2023-10-08T11:47:44;11.00;;;3.50;;
3054;SDS011;1537;52.018;8.542;2023-10-08T11:51:12;7.87;;;3.67;;
3054;SDS011;1537;52.018;8.542;2023-10-08T11:54:39;7.20;;;3.07;;
3054;SDS011;1537;52.018;8.542;2023-10-08T11:58:04;8.00;;;3.40;;
3054;SDS011;1537;52.018;8.542;2023-10-08T12:01:33;6.20;;;3.10;;
3054;SDS011;1537;52.018;8.542;2023-10-08T12:04:57;9.03;;;3.37;;
3054;SDS011;1537;52.018;8.542;2023-10-08T12:08:22;8.00;;;2.90;;
3054;SDS011;1537;52.018;8.542;2023-10-08T12:11:49;6.87;;;3.43;;
3054;SDS011;1537;52.018;8.542;2023-10-08T12:15:13;6.63;;;3.40;;
3054;SDS011;1537;52.018;8.542;2023-10-08T12:18:41;5.90;;;2.90;;
3054;SDS011;1537;52.018;8.542;2023-10-08T12:22:05;8.07;;;3.10;;
3054;SDS011;1537;52.018;8.542;2023-10-08T12:25:32;10.83;;;3.87;;
3054;SDS011;1537;52.018;8.542;2023-10-08T12:28:55;7.60;;;2.57;;
3054;SDS011;1537;52.018;8.542;2023-10-08T12:32:19;9.47;;;2.97;;
3054;SDS011;1537;52.018;8.542;2023-10-08T12:35:48;6.80;;;3.27;;
3054;SDS011;1537;52.018;8.542;2023-10-08T12:39:13;8.13;;;3.13;;
3054;SDS011;1537;52.018;8.542;2023-10-08T12:42:39;7.43;;;3.10;;
3054;SDS011;1537;52.018;8.542;2023-10-08T12:46:06;6.37;;;2.90;;
3054;SDS011;1537;52.018;8.542;2023-10-08T12:49:32;7.13;;;3.60;;
3054;SDS011;1537;52.018;8.542;2023-10-08T12:52:56;8.20;;;3.40;;
3054;SDS011;1537;52.018;8.542;2023-10-08T12:56:26;9.90;;;3.83;;
3054;SDS011;1537;52.018;8.542;2023-10-08T12:59:59;9.83;;;3.23;;
3054;SDS011;1537;52.018;8.542;2023-10-08T13:03:25;8.70;;;3.77;;
3054;SDS011;1537;52.018;8.542;2023-10-08T13:06:53;11.40;;;3.70;;
3054;SDS011;1537;52.018;8.542;2023-10-08T13:10:19;11.10;;;3.77;;
3054;SDS011;1537;52.018;8.542;2023-10-08T13:13:43;13.00;;;5.07;;
3054;SDS011;1537;52.018;8.542;2023-10-08T13:17:10;6.50;;;3.77;;
3054;SDS011;1537;52.018;8.542;2023-10-08T13:20:34;8.90;;;4.53;;
3054;SDS011;1537;52.018;8.542;2023-10-08T13:23:58;8.70;;;3.47;;
3054;SDS011;1537;52.018;8.542;2023-10-08T13:27:24;6.70;;;4.30;;
3054;SDS011;1537;52.018;8.542;2023-10-08T13:30:48;10.00;;;3.80;;
3054;SDS011;1537;52.018;8.542;2023-10-08T13:34:15;11.10;;;3.93;;
3054;SDS011;1537;52.018;8.542;2023-10-08T13:37:39;9.60;;;4.20;;
3054;SDS011;1537;52.018;8.542;2023-10-08T13:41:04;6.20;;;3.83;;
3054;SDS011;1537;52.018;8.542;2023-10-08T13:44:36;9.40;;;4.70;;
3054;SDS011;1537;52.018;8.542;2023-10-08T13:48:00;6.63;;;3.90;;
3054;SDS011;1537;52.018;8.542;2023-10-08T13:51:25;7.53;;;5.10;;
3054;SDS011;1537;52.018;8.542;2023-10-08T13:54:49;14.47;;;5.50;;
3054;SDS011;1537;52.018;8.542;2023-10-08T13:58:14;6.33;;;4.83;;
3054;SDS011;1537;52.018;8.542;2023-10-08T14:01:38;6.93;;;4.53;;
3054;SDS011;1537;52.018;8.542;2023-10-08T14:05:06;6.70;;;4.90;;
3054;SDS011;1537;52.018;8.542;2023-10-08T14:08:32;6.27;;;4.20;;
3054;SDS011;1537;52.018;8.542;2023-10-08T14:11:56;6.30;;;4.70;;
3054;SDS011;1537;52.018;8.542;2023-10-08T14:15:21;6.70;;;4.43;;
3054;SDS011;1537;52.018;8.542;2023-10-08T14:18:45;6.50;;;4.53;;
3054;SDS011;1537;52.018;8.542;2023-10-08T14:22:15;8.87;;;4.40;;
3054;SDS011;1537;52.018;8.542;2023-10-08T14:25:42;7.10;;;5.00;;
3054;SDS011;1537;52.018;8.542;2023-10-08T14:29:07;10.30;;;4.87;;
3054;SDS011;1537;52.018;8.542;2023-10-08T14:32:32;6.97;;;4.47;;
3054;SDS011;1537;52.018;8.542;2023-10-08T14:35:57;13.10;;;4.60;;
3054;SDS011;1537;52.018;8.542;2023-10-08T14:39:38;5.80;;;4.17;;
3054;SDS011;1537;52.018;8.542;2023-10-08T14:43:21;8.23;;;5.30;;
3054;SDS011;1537;52.018;8.542;2023-10-08T14:46:46;9.30;;;5.63;;
3054;SDS011;1537;52.018;8.542;2023-10-08T14:50:09;8.40;;;5.13;;
3054;SDS011;1537;52.018;8.542;2023-10-08T14:53:38;6.60;;;4.53;;
3054;SDS011;1537;52.018;8.542;2023-10-08T14:57:02;6.90;;;4.33;;
3054;SDS011;1537;52.018;8.542;2023-10-08T15:00:28;6.33;;;4.43;;
3054;SDS011;1537;52.018;8.542;2023-10-08T15:03:53;8.90;;;5.30;;
3054;SDS011;1537;52.018;8.542;2023-10-08T15:07:17;8.07;;;6.10;;
3054;SDS011;1537;52.018;8.542;2023-10-08T15:10:42;6.00;;;4.70;;
3054;SDS011;1537;52.018;8.542;2023-10-08T15:14:07;8.57;;;5.30;;
3054;SDS011;1537;52.018;8.542;2023-10-08T15:17:34;5.60;;;5.00;;
3054;SDS011;1537;52.018;8.542;2023-10-08T15:20:58;7.43;;;5.07;;
3054;SDS011;1537;52.018;8.542;2023-10-08T15:24:22;7.47;;;5.20;;
3054;SDS011;1537;52.018;8.542;2023-10-08T15:27:46;7.10;;;4.50;;
3054;SDS011;1537;52.018;8.542;2023-10-08T15:31:11;7.13;;;4.90;;
3054;SDS011;1537;52.018;8.542;2023-10-08T15:34:36;7.40;;;5.10;;
3054;SDS011;1537;52.018;8.542;2023-10-08T15:38:05;10.27;;;4.97;;
3054;SDS011;1537;52.018;8.542;2023-10-08T15:41:29;7.10;;;5.37;;
3054;SDS011;1537;52.018;8.542;2023-10-08T15:44:52;7.50;;;4.87;;
3054;SDS011;1537;52.018;8.542;2023-10-08T15:48:16;7.97;;;4.90;;
3054;SDS011;1537;52.018;8.542;2023-10-08T15:51:41;6.10;;;4.57;;
3054;SDS011;1537;52.018;8.542;2023-10-08T15:55:05;5.47;;;3.93;;
3054;SDS011;1537;52.018;8.542;2023-10-08T15:58:30;5.63;;;4.60;;
3054;SDS011;1537;52.018;8.542;2023-10-08T16:01:54;7.73;;;5.30;;
3054;SDS011;1537;52.018;8.542;2023-10-08T16:05:20;6.87;;;4.80;;
3054;SDS011;1537;52.018;8.542;2023-10-08T16:08:45;6.10;;;5.00;;
3054;SDS011;1537;52.018;8.542;2023-10-08T16:12:09;7.13;;;4.93;;
3054;SDS011;1537;52.018;8.542;2023-10-08T16:15:33;7.50;;;4.73;;
3054;SDS011;1537;52.018;8.542;2023-10-08T16:18:57;10.13;;;5.00;;
3054;SDS011;1537;52.018;8.542;2023-10-08T16:22:22;7.90;;;4.77;;
3054;SDS011;1537;52.018;8.542;2023-10-08T16:25:47;6.07;;;5.17;;
3054;SDS011;1537;52.018;8.542;2023-10-08T16:29:17;5.53;;;3.93;;
3054;SDS011;1537;52.018;8.542;2023-10-08T16:32:42;5.57;;;4.13;;
3054;SDS011;1537;52.018;8.542;2023-10-08T16:36:06;8.33;;;4.60;;
3054;SDS011;1537;52.018;8.542;2023-10-08T16:39:31;7.47;;;5.33;;
3054;SDS011;1537;52.018;8.542;2023-10-08T16:42:56;11.23;;;5.50;;
3054;SDS011;1537;52.018;8.542;2023-10-08T16:46:20;6.00;;;4.53;;
3054;SDS011;1537;52.018;8.542;2023-10-08T16:49:43;11.90;;;5.40;;
3054;SDS011;1537;52.018;8.542;2023-10-08T16:53:07;6.90;;;5.00;;
3054;SDS011;1537;52.018;8.542;2023-10-08T16:56:31;7.30;;;5.20;;
3054;SDS011;1537;52.018;8.542;2023-10-08T16:59:56;7.47;;;4.57;;
3054;SDS011;1537;52.018;8.542;2023-10-08T17:03:20;9.43;;;5.00;;
3054;SDS011;1537;52.018;8.542;2023-10-08T17:06:44;8.40;;;4.73;;
3054;SDS011;1537;52.018;8.542;2023-10-08T17:10:09;7.80;;;6.00;;
3054;SDS011;1537;52.018;8.542;2023-10-08T17:13:33;6.83;;;4.80;;
3054;SDS011;1537;52.018;8.542;2023-10-08T17:16:58;7.37;;;5.03;;
3054;SDS011;1537;52.018;8.542;2023-10-08T17:20:25;7.43;;;4.87;;
3054;SDS011;1537;52.018;8.542;2023-10-08T17:23:49;6.60;;;5.17;;
3054;SDS011;1537;52.018;8.542;2023-10-08T17:27:13;7.47;;;5.70;;
3054;SDS011;1537;52.018;8.542;2023-10-08T17:30:37;7.37;;;5.20;;
3054;SDS011;1537;52.018;8.542;2023-10-08T17:34:02;9.03;;;4.83;;
3054;SDS011;1537;52.018;8.542;2023-10-08T17:37:28;8.73;;;5.13;;
3054;SDS011;1537;52.018;8.542;2023-10-08T17:40:51;10.63;;;7.17;;
3054;SDS011;1537;52.018;8.542;2023-10-08T17:44:16;6.80;;;5.50;;
3054;SDS011;1537;52.018;8.542;2023-10-08T17:47:41;9.00;;;5.20;;
3054;SDS011;1537;52.018;8.542;2023-10-08T17:51:06;7.00;;;5.67;;
3054;SDS011;1537;52.018;8.542;2023-10-08T17:54:31;8.93;;;6.30;;
3054;SDS011;1537;52.018;8.542;2023-10-08T17:57:58;8.93;;;5.33;;
3054;SDS011;1537;52.018;8.542;2023-10-08T18:01:23;9.13;;;5.57;;
3054;SDS011;1537;52.018;8.542;2023-10-08T18:04:47;7.63;;;6.00;;
3054;SDS011;1537;52.018;8.542;2023-10-08T18:08:12;8.43;;;6.90;;
3054;SDS011;1537;52.018;8.542;2023-10-08T18:11:37;13.23;;;6.10;;
3054;SDS011;1537;52.018;8.542;2023-10-08T18:15:04;8.90;;;5.93;;
3054;SDS011;1537;52.018;8.542;2023-10-08T18:18:31;7.73;;;5.50;;
3054;SDS011;1537;52.018;8.542;2023-10-08T18:21:55;7.10;;;4.73;;
3054;SDS011;1537;52.018;8.542;2023-10-08T18:25:22;6.17;;;5.20;;
3054;SDS011;1537;52.018;8.542;2023-10-08T18:28:46;8.30;;;5.37;;
3054;SDS011;1537;52.018;8.542;2023-10-08T18:32:11;5.77;;;4.80;;
3054;SDS011;1537;52.018;8.542;2023-10-08T18:35:35;5.30;;;4.70;;
3054;SDS011;1537;52.018;8.542;2023-10-08T18:38:58;8.30;;;5.30;;
3054;SDS011;1537;52.018;8.542;2023-10-08T18:42:24;9.00;;;5.10;;
3054;SDS011;1537;52.018;8.542;2023-10-08T18:45:49;6.77;;;5.50;;
3054;SDS011;1537;52.018;8.542;2023-10-08T18:49:13;7.40;;;5.20;;
3054;SDS011;1537;52.018;8.542;2023-10-08T18:52:37;5.40;;;4.90;;
3054;SDS011;1537;52.018;8.542;2023-10-08T18:56:02;8.17;;;5.90;;
3054;SDS011;1537;52.018;8.542;2023-10-08T18:59:30;5.40;;;4.90;;
3054;SDS011;1537;52.018;8.542;2023-10-08T19:02:54;6.80;;;6.10;;
3054;SDS011;1537;52.018;8.542;2023-10-08T19:06:18;7.77;;;5.80;;
3054;SDS011;1537;52.018;8.542;2023-10-08T19:09:42;9.60;;;6.40;;
3054;SDS011;1537;52.018;8.542;2023-10-08T19:13:06;5.90;;;5.30;;
3054;SDS011;1537;52.018;8.542;2023-10-08T19:16:33;8.10;;;5.60;;
3054;SDS011;1537;52.018;8.542;2023-10-08T19:20:01;5.97;;;5.10;;
3054;SDS011;1537;52.018;8.542;2023-10-08T19:23:30;13.23;;;8.50;;
3054;SDS011;1537;52.018;8.542;2023-10-08T19:26:59;11.63;;;6.20;;
3054;SDS011;1537;52.018;8.542;2023-10-08T19:30:30;9.87;;;6.17;;
3054;SDS011;1537;52.018;8.542;2023-10-08T19:34:01;12.57;;;6.43;;
3054;SDS011;1537;52.018;8.542;2023-10-08T19:37:28;6.60;;;5.17;;
3054;SDS011;1537;52.018;8.542;2023-10-08T19:40:53;7.90;;;5.47;;
3054;SDS011;1537;52.018;8.542;2023-10-08T19:44:18;7.30;;;6.00;;
3054;SDS011;1537;52.018;8.542;2023-10-08T19:47:42;6.93;;;6.23;;
3054;SDS011;1537;52.018;8.542;2023-10-08T19:51:11;6.50;;;5.80;;
3054;SDS011;1537;52.018;8.542;2023-10-08T19:54:41;9.17;;;6.00;;
3054;SDS011;1537;52.018;8.542;2023-10-08T19:58:09;7.70;;;5.60;;
3054;SDS011;1537;52.018;8.542;2023-10-08T20:01:34;7.23;;;6.13;;
3054;SDS011;1537;52.018;8.542;2023-10-08T20:05:00;7.97;;;6.03;;
3054;SDS011;1537;52.018;8.542;2023-10-08T20:08:30;8.63;;;6.13;;
3054;SDS011;1537;52.018;8.542;2023-10-08T20:11:55;8.60;;;5.70;;
3054;SDS011;1537;52.018;8.542;2023-10-08T20:15:20;9.60;;;7.00;;
3054;SDS011;1537;52.018;8.542;2023-10-08T20:18:46;9.07;;;5.30;;
3054;SDS011;1537;52.018;8.542;2023-10-08T20:22:11;9.27;;;5.30;;
3054;SDS011;1537;52.018;8.542;2023-10-08T20:25:42;11.10;;;5.60;;
3054;SDS011;1537;52.018;8.542;2023-10-08T20:29:08;7.33;;;6.00;;
3054;SDS011;1537;52.018;8.542;2023-10-08T20:32:33;7.53;;;5.67;;
3054;SDS011;1537;52.018;8.542;2023-10-08T20:35:58;6.73;;;5.87;;
3054;SDS011;1537;52.018;8.542;2023-10-08T20:39:28;8.87;;;6.07;;
3054;SDS011;1537;52.018;8.542;2023-10-08T20:42:58;8.73;;;6.13;;
3054;SDS011;1537;52.018;8.542;2023-10-08T20:46:28;9.93;;;5.93;;
3054;SDS011;1537;52.018;8.542;2023-10-08T20:49:55;8.00;;;6.60;;
3054;SDS011;1537;52.018;8.542;2023-10-08T20:53:22;7.50;;;6.57;;
3054;SDS011;1537;52.018;8.542;2023-10-08T20:56:54;8.77;;;6.07;;
3054;SDS011;1537;52.018;8.542;2023-10-08T21:00:28;10.13;;;7.30;;
3054;SDS011;1537;52.018;8.542;2023-10-08T21:03:57;7.27;;;6.57;;
3054;SDS011;1537;52.018;8.542;2023-10-08T21:07:21;12.60;;;7.13;;
3054;SDS011;1537;52.018;8.542;2023-10-08T21:10:45;9.07;;;6.87;;
3054;SDS011;1537;52.018;8.542;2023-10-08T21:14:16;9.43;;;6.77;;
3054;SDS011;1537;52.018;8.542;2023-10-08T21:17:49;7.70;;;6.77;;
3054;SDS011;1537;52.018;8.542;2023-10-08T21:21:19;7.47;;;6.63;;
3054;SDS011;1537;52.018;8.542;2023-10-08T21:24:45;10.87;;;7.40;;